sensor_id;sensor_type;location;lat;lon;timestamp;P1;durP1;ratioP1;P2;durP2;ratioP2
71916;SDS011;59793;46.506;6.674;2023-06-14T00:02:08;10.63;;;3.95;;
71916;SDS011;59793;46.506;6.674;2023-06-14T00:04:35;11.67;;;3.87;;
71916;SDS011;59793;46.506;6.674;2023-06-14T00:07:01;5.20;;;3.88;;
71916;SDS011;59793;46.506;6.674;2023-06-14T00:09:26;6.87;;;3.83;;
71916;SDS011;59793;46.506;6.674;2023-06-14T00:11:52;8.23;;;3.90;;
71916;SDS011;59793;46.506;6.674;2023-06-14T00:14:17;8.20;;;3.30;;
71916;SDS011;59793;46.506;6.674;2023-06-14T00:16:43;6.73;;;3.93;;
71916;SDS011;59793;46.506;6.674;2023-06-14T00:19:09;7.00;;;3.77;;
71916;SDS011;59793;46.506;6.674;2023-06-14T00:21:36;6.63;;;3.80;;
71916;SDS011;59793;46.506;6.674;2023-06-14T00:24:02;8.10;;;3.90;;
71916;SDS011;59793;46.506;6.674;2023-06-14T00:26:29;9.45;;;3.63;;
71916;SDS011;59793;46.506;6.674;2023-06-14T00:28:54;9.80;;;4.70;;
71916;SDS011;59793;46.506;6.674;2023-06-14T00:31:21;8.30;;;4.15;;
71916;SDS011;59793;46.506;6.674;2023-06-14T00:33:46;4.90;;;3.40;;
71916;SDS011;59793;46.506;6.674;2023-06-14T00:36:12;11.27;;;3.80;;
71916;SDS011;59793;46.506;6.674;2023-06-14T00:38:37;8.40;;;3.93;;
71916;SDS011;59793;46.506;6.674;2023-06-14T00:41:03;6.27;;;3.80;;
71916;SDS011;59793;46.506;6.674;2023-06-14T00:43:28;9.43;;;3.47;;
71916;SDS011;59793;46.506;6.674;2023-06-14T00:45:54;6.23;;;3.67;;
71916;SDS011;59793;46.506;6.674;2023-06-14T00:48:19;5.83;;;4.30;;
71916;SDS011;59793;46.506;6.674;2023-06-14T00:50:45;6.10;;;3.17;;
71916;SDS011;59793;46.506;6.674;2023-06-14T00:53:15;11.53;;;4.27;;
71916;SDS011;59793;46.506;6.674;2023-06-14T00:55:42;10.65;;;3.92;;
71916;SDS011;59793;46.506;6.674;2023-06-14T00:58:08;8.00;;;3.73;;
71916;SDS011;59793;46.506;6.674;2023-06-14T01:00:34;6.53;;;3.78;;
71916;SDS011;59793;46.506;6.674;2023-06-14T01:03:00;8.03;;;3.50;;
71916;SDS011;59793;46.506;6.674;2023-06-14T01:05:27;5.18;;;3.22;;
71916;SDS011;59793;46.506;6.674;2023-06-14T01:13:20;12.88;;;3.17;;
71916;SDS011;59793;46.506;6.674;2023-06-14T01:15:52;12.48;;;3.67;;
71916;SDS011;59793;46.506;6.674;2023-06-14T01:18:18;5.97;;;3.90;;
71916;SDS011;59793;46.506;6.674;2023-06-14T01:20:44;4.90;;;3.23;;
71916;SDS011;59793;46.506;6.674;2023-06-14T01:23:19;7.95;;;4.20;;
71916;SDS011;59793;46.506;6.674;2023-06-14T01:25:46;8.85;;;4.00;;
71916;SDS011;59793;46.506;6.674;2023-06-14T01:28:13;13.55;;;3.97;;
71916;SDS011;59793;46.506;6.674;2023-06-14T01:30:41;8.48;;;3.70;;
71916;SDS011;59793;46.506;6.674;2023-06-14T01:33:16;8.07;;;3.42;;
71916;SDS011;59793;46.506;6.674;2023-06-14T01:35:45;7.72;;;3.45;;
71916;SDS011;59793;46.506;6.674;2023-06-14T01:38:12;7.15;;;3.97;;
71916;SDS011;59793;46.506;6.674;2023-06-14T01:40:38;7.65;;;3.42;;
71916;SDS011;59793;46.506;6.674;2023-06-14T01:43:04;4.47;;;3.17;;
71916;SDS011;59793;46.506;6.674;2023-06-14T01:45:31;4.97;;;3.30;;
71916;SDS011;59793;46.506;6.674;2023-06-14T01:47:58;9.68;;;3.38;;
71916;SDS011;59793;46.506;6.674;2023-06-14T01:50:27;7.70;;;3.70;;
71916;SDS011;59793;46.506;6.674;2023-06-14T01:52:55;6.50;;;3.72;;
71916;SDS011;59793;46.506;6.674;2023-06-14T01:55:20;4.87;;;2.93;;
71916;SDS011;59793;46.506;6.674;2023-06-14T01:57:46;4.75;;;3.30;;
71916;SDS011;59793;46.506;6.674;2023-06-14T02:00:12;6.87;;;3.83;;
71916;SDS011;59793;46.506;6.674;2023-06-14T02:02:39;4.72;;;3.05;;
71916;SDS011;59793;46.506;6.674;2023-06-14T02:05:05;7.45;;;4.22;;
71916;SDS011;59793;46.506;6.674;2023-06-14T02:07:31;5.35;;;3.47;;
71916;SDS011;59793;46.506;6.674;2023-06-14T02:09:57;8.03;;;3.67;;
71916;SDS011;59793;46.506;6.674;2023-06-14T02:12:22;7.40;;;4.40;;
71916;SDS011;59793;46.506;6.674;2023-06-14T02:14:48;5.67;;;4.03;;
71916;SDS011;59793;46.506;6.674;2023-06-14T02:17:14;6.17;;;4.17;;
71916;SDS011;59793;46.506;6.674;2023-06-14T02:19:39;5.47;;;3.95;;
71916;SDS011;59793;46.506;6.674;2023-06-14T02:22:05;4.07;;;3.17;;
71916;SDS011;59793;46.506;6.674;2023-06-14T02:24:31;5.17;;;3.90;;
71916;SDS011;59793;46.506;6.674;2023-06-14T02:26:56;6.40;;;3.47;;
71916;SDS011;59793;46.506;6.674;2023-06-14T02:29:21;6.77;;;3.97;;
71916;SDS011;59793;46.506;6.674;2023-06-14T02:31:46;8.63;;;4.27;;
71916;SDS011;59793;46.506;6.674;2023-06-14T02:34:13;5.32;;;3.80;;
71916;SDS011;59793;46.506;6.674;2023-06-14T02:36:39;6.15;;;4.05;;
71916;SDS011;59793;46.506;6.674;2023-06-14T02:39:07;7.32;;;3.65;;
71916;SDS011;59793;46.506;6.674;2023-06-14T02:41:34;6.03;;;3.50;;
71916;SDS011;59793;46.506;6.674;2023-06-14T02:44:00;6.17;;;3.60;;
71916;SDS011;59793;46.506;6.674;2023-06-14T02:46:25;7.13;;;4.57;;
71916;SDS011;59793;46.506;6.674;2023-06-14T02:48:50;6.03;;;3.53;;
71916;SDS011;59793;46.506;6.674;2023-06-14T02:51:15;9.60;;;3.50;;
71916;SDS011;59793;46.506;6.674;2023-06-14T02:53:41;5.87;;;3.87;;
71916;SDS011;59793;46.506;6.674;2023-06-14T02:56:06;5.83;;;3.30;;
71916;SDS011;59793;46.506;6.674;2023-06-14T02:58:32;6.17;;;3.67;;
71916;SDS011;59793;46.506;6.674;2023-06-14T03:00:58;6.97;;;3.80;;
71916;SDS011;59793;46.506;6.674;2023-06-14T03:03:27;8.02;;;3.60;;
71916;SDS011;59793;46.506;6.674;2023-06-14T03:05:53;14.67;;;4.30;;
71916;SDS011;59793;46.506;6.674;2023-06-14T03:08:19;5.03;;;3.78;;
71916;SDS011;59793;46.506;6.674;2023-06-14T03:10:45;3.97;;;3.28;;
71916;SDS011;59793;46.506;6.674;2023-06-14T03:13:15;15.63;;;4.20;;
71916;SDS011;59793;46.506;6.674;2023-06-14T03:15:46;6.75;;;3.83;;
71916;SDS011;59793;46.506;6.674;2023-06-14T03:18:15;4.65;;;3.05;;
71916;SDS011;59793;46.506;6.674;2023-06-14T03:20:45;7.32;;;3.75;;
71916;SDS011;59793;46.506;6.674;2023-06-14T03:23:11;7.00;;;4.13;;
71916;SDS011;59793;46.506;6.674;2023-06-14T03:25:37;7.13;;;3.50;;
71916;SDS011;59793;46.506;6.674;2023-06-14T03:28:03;7.65;;;3.33;;
71916;SDS011;59793;46.506;6.674;2023-06-14T03:30:29;5.65;;;3.55;;
71916;SDS011;59793;46.506;6.674;2023-06-14T03:32:55;8.90;;;4.10;;
71916;SDS011;59793;46.506;6.674;2023-06-14T03:35:21;6.73;;;3.70;;
71916;SDS011;59793;46.506;6.674;2023-06-14T03:37:47;8.10;;;3.75;;
71916;SDS011;59793;46.506;6.674;2023-06-14T03:40:14;6.53;;;3.57;;
71916;SDS011;59793;46.506;6.674;2023-06-14T03:42:44;7.65;;;3.78;;
71916;SDS011;59793;46.506;6.674;2023-06-14T03:45:09;5.07;;;3.40;;
71916;SDS011;59793;46.506;6.674;2023-06-14T03:47:35;6.77;;;3.63;;
71916;SDS011;59793;46.506;6.674;2023-06-14T03:50:01;6.27;;;3.57;;
71916;SDS011;59793;46.506;6.674;2023-06-14T03:52:27;7.60;;;3.50;;
71916;SDS011;59793;46.506;6.674;2023-06-14T03:54:53;6.37;;;3.70;;
71916;SDS011;59793;46.506;6.674;2023-06-14T03:57:18;5.57;;;3.97;;
71916;SDS011;59793;46.506;6.674;2023-06-14T03:59:45;7.40;;;3.13;;
71916;SDS011;59793;46.506;6.674;2023-06-14T04:02:10;7.10;;;3.70;;
71916;SDS011;59793;46.506;6.674;2023-06-14T04:04:38;5.28;;;3.10;;
71916;SDS011;59793;46.506;6.674;2023-06-14T04:07:04;12.40;;;3.25;;
71916;SDS011;59793;46.506;6.674;2023-06-14T04:09:29;6.57;;;3.67;;
71916;SDS011;59793;46.506;6.674;2023-06-14T04:11:55;6.73;;;3.67;;
71916;SDS011;59793;46.506;6.674;2023-06-14T04:14:21;5.88;;;3.33;;
71916;SDS011;59793;46.506;6.674;2023-06-14T04:16:47;5.30;;;3.17;;
71916;SDS011;59793;46.506;6.674;2023-06-14T04:19:13;6.07;;;3.72;;
71916;SDS011;59793;46.506;6.674;2023-06-14T04:21:39;5.75;;;3.67;;
71916;SDS011;59793;46.506;6.674;2023-06-14T04:24:05;5.97;;;3.40;;
71916;SDS011;59793;46.506;6.674;2023-06-14T04:26:31;7.22;;;3.67;;
71916;SDS011;59793;46.506;6.674;2023-06-14T04:28:59;8.13;;;3.92;;
71916;SDS011;59793;46.506;6.674;2023-06-14T04:31:28;6.85;;;3.55;;
71916;SDS011;59793;46.506;6.674;2023-06-14T04:33:54;6.35;;;3.70;;
71916;SDS011;59793;46.506;6.674;2023-06-14T04:36:20;7.30;;;3.83;;
71916;SDS011;59793;46.506;6.674;2023-06-14T04:38:46;6.70;;;4.13;;
71916;SDS011;59793;46.506;6.674;2023-06-14T04:41:11;8.77;;;3.97;;
71916;SDS011;59793;46.506;6.674;2023-06-14T04:43:38;9.90;;;3.50;;
71916;SDS011;59793;46.506;6.674;2023-06-14T04:46:05;8.40;;;3.90;;
71916;SDS011;59793;46.506;6.674;2023-06-14T04:48:35;6.20;;;4.00;;
71916;SDS011;59793;46.506;6.674;2023-06-14T04:51:06;7.40;;;4.18;;
71916;SDS011;59793;46.506;6.674;2023-06-14T04:53:32;7.43;;;4.20;;
71916;SDS011;59793;46.506;6.674;2023-06-14T04:55:57;5.63;;;3.47;;
71916;SDS011;59793;46.506;6.674;2023-06-14T04:58:25;5.28;;;3.47;;
71916;SDS011;59793;46.506;6.674;2023-06-14T05:00:52;8.23;;;3.80;;
71916;SDS011;59793;46.506;6.674;2023-06-14T05:03:18;7.40;;;3.47;;
71916;SDS011;59793;46.506;6.674;2023-06-14T05:05:46;5.10;;;3.35;;
71916;SDS011;59793;46.506;6.674;2023-06-14T05:08:12;9.03;;;3.77;;
71916;SDS011;59793;46.506;6.674;2023-06-14T05:10:37;11.77;;;3.37;;
71916;SDS011;59793;46.506;6.674;2023-06-14T05:13:03;5.83;;;3.43;;
71916;SDS011;59793;46.506;6.674;2023-06-14T05:15:28;8.10;;;3.60;;
71916;SDS011;59793;46.506;6.674;2023-06-14T05:17:54;5.05;;;3.60;;
71916;SDS011;59793;46.506;6.674;2023-06-14T05:20:22;9.40;;;3.63;;
71916;SDS011;59793;46.506;6.674;2023-06-14T05:22:49;5.30;;;3.63;;
71916;SDS011;59793;46.506;6.674;2023-06-14T05:25:18;8.52;;;3.83;;
71916;SDS011;59793;46.506;6.674;2023-06-14T05:30:10;8.15;;;4.22;;
71916;SDS011;59793;46.506;6.674;2023-06-14T05:32:38;7.97;;;4.25;;
71916;SDS011;59793;46.506;6.674;2023-06-14T05:35:04;10.80;;;3.57;;
71916;SDS011;59793;46.506;6.674;2023-06-14T05:37:30;7.05;;;3.35;;
71916;SDS011;59793;46.506;6.674;2023-06-14T05:39:56;5.53;;;3.60;;
71916;SDS011;59793;46.506;6.674;2023-06-14T05:42:22;5.93;;;3.43;;
71916;SDS011;59793;46.506;6.674;2023-06-14T05:44:52;8.23;;;3.30;;
71916;SDS011;59793;46.506;6.674;2023-06-14T05:47:17;8.57;;;3.93;;
71916;SDS011;59793;46.506;6.674;2023-06-14T05:52:09;8.55;;;3.42;;
71916;SDS011;59793;46.506;6.674;2023-06-14T05:54:36;7.95;;;3.58;;
71916;SDS011;59793;46.506;6.674;2023-06-14T05:57:02;8.97;;;4.13;;
71916;SDS011;59793;46.506;6.674;2023-06-14T05:59:29;9.55;;;3.53;;
71916;SDS011;59793;46.506;6.674;2023-06-14T06:01:55;8.53;;;3.60;;
71916;SDS011;59793;46.506;6.674;2023-06-14T06:04:20;5.37;;;2.87;;
71916;SDS011;59793;46.506;6.674;2023-06-14T06:06:46;7.03;;;3.40;;
71916;SDS011;59793;46.506;6.674;2023-06-14T06:09:14;8.30;;;3.13;;
71916;SDS011;59793;46.506;6.674;2023-06-14T06:14:05;12.90;;;3.38;;
71916;SDS011;59793;46.506;6.674;2023-06-14T06:16:30;5.67;;;2.93;;
71916;SDS011;59793;46.506;6.674;2023-06-14T06:18:55;5.27;;;3.50;;
71916;SDS011;59793;46.506;6.674;2023-06-14T06:21:21;6.30;;;3.73;;
71916;SDS011;59793;46.506;6.674;2023-06-14T06:23:46;4.97;;;3.27;;
71916;SDS011;59793;46.506;6.674;2023-06-14T06:26:12;6.67;;;3.87;;
71916;SDS011;59793;46.506;6.674;2023-06-14T06:31:04;5.68;;;3.00;;
71916;SDS011;59793;46.506;6.674;2023-06-14T06:33:30;7.65;;;3.40;;
71916;SDS011;59793;46.506;6.674;2023-06-14T06:35:57;7.97;;;3.75;;
71916;SDS011;59793;46.506;6.674;2023-06-14T06:38:22;6.37;;;3.13;;
71916;SDS011;59793;46.506;6.674;2023-06-14T06:40:48;5.47;;;2.90;;
71916;SDS011;59793;46.506;6.674;2023-06-14T06:43:13;4.43;;;3.20;;
71916;SDS011;59793;46.506;6.674;2023-06-14T06:45:39;4.93;;;3.23;;
71916;SDS011;59793;46.506;6.674;2023-06-14T06:48:06;5.20;;;3.15;;
71916;SDS011;59793;46.506;6.674;2023-06-14T06:50:31;6.23;;;3.53;;
71916;SDS011;59793;46.506;6.674;2023-06-14T06:52:58;5.78;;;3.22;;
71916;SDS011;59793;46.506;6.674;2023-06-14T06:55:24;8.97;;;3.23;;
71916;SDS011;59793;46.506;6.674;2023-06-14T06:57:55;7.85;;;3.80;;
71916;SDS011;59793;46.506;6.674;2023-06-14T07:00:20;5.97;;;3.70;;
71916;SDS011;59793;46.506;6.674;2023-06-14T07:02:51;7.75;;;3.38;;
71916;SDS011;59793;46.506;6.674;2023-06-14T07:05:17;8.88;;;3.50;;
71916;SDS011;59793;46.506;6.674;2023-06-14T07:07:42;5.33;;;3.00;;
71916;SDS011;59793;46.506;6.674;2023-06-14T07:10:08;6.63;;;3.22;;
71916;SDS011;59793;46.506;6.674;2023-06-14T07:12:34;8.50;;;3.63;;
71916;SDS011;59793;46.506;6.674;2023-06-14T07:15:04;14.23;;;3.63;;
71916;SDS011;59793;46.506;6.674;2023-06-14T07:17:31;9.27;;;3.38;;
71916;SDS011;59793;46.506;6.674;2023-06-14T07:27:41;12.30;;;3.78;;
71916;SDS011;59793;46.506;6.674;2023-06-14T07:30:07;21.90;;;4.00;;
71916;SDS011;59793;46.506;6.674;2023-06-14T07:32:36;13.23;;;3.88;;
71916;SDS011;59793;46.506;6.674;2023-06-14T07:35:03;13.10;;;4.23;;
71916;SDS011;59793;46.506;6.674;2023-06-14T07:37:29;6.10;;;3.10;;
71916;SDS011;59793;46.506;6.674;2023-06-14T07:45:02;6.95;;;3.00;;
71916;SDS011;59793;46.506;6.674;2023-06-14T07:47:28;10.90;;;4.10;;
71916;SDS011;59793;46.506;6.674;2023-06-14T07:49:55;6.63;;;3.72;;
71916;SDS011;59793;46.506;6.674;2023-06-14T07:52:20;7.30;;;4.07;;
71916;SDS011;59793;46.506;6.674;2023-06-14T07:54:45;7.40;;;3.37;;
71916;SDS011;59793;46.506;6.674;2023-06-14T07:57:14;7.80;;;3.10;;
71916;SDS011;59793;46.506;6.674;2023-06-14T08:05:54;9.25;;;3.72;;
71916;SDS011;59793;46.506;6.674;2023-06-14T08:08:20;8.90;;;3.13;;
71916;SDS011;59793;46.506;6.674;2023-06-14T09:34:08;11.68;;;4.43;;
71916;SDS011;59793;46.506;6.674;2023-06-14T09:36:34;6.10;;;3.88;;
71916;SDS011;59793;46.506;6.674;2023-06-14T09:39:01;9.27;;;3.88;;
71916;SDS011;59793;46.506;6.674;2023-06-14T09:41:35;8.13;;;3.72;;
71916;SDS011;59793;46.506;6.674;2023-06-14T09:44:04;5.25;;;3.78;;
71916;SDS011;59793;46.506;6.674;2023-06-14T09:46:35;12.15;;;4.47;;
71916;SDS011;59793;46.506;6.674;2023-06-14T09:49:02;7.88;;;4.88;;
71916;SDS011;59793;46.506;6.674;2023-06-14T10:32:35;7.85;;;4.10;;
71916;SDS011;59793;46.506;6.674;2023-06-14T10:35:22;11.75;;;3.83;;
71916;SDS011;59793;46.506;6.674;2023-06-14T11:40:22;6.30;;;3.92;;
71916;SDS011;59793;46.506;6.674;2023-06-14T11:45:24;11.43;;;4.18;;
71916;SDS011;59793;46.506;6.674;2023-06-14T11:50:22;7.38;;;4.25;;
71916;SDS011;59793;46.506;6.674;2023-06-14T11:52:57;8.13;;;3.88;;
71916;SDS011;59793;46.506;6.674;2023-06-14T11:55:36;8.95;;;3.80;;
71916;SDS011;59793;46.506;6.674;2023-06-14T11:58:05;5.95;;;4.07;;
71916;SDS011;59793;46.506;6.674;2023-06-14T12:00:31;5.50;;;3.80;;
71916;SDS011;59793;46.506;6.674;2023-06-14T12:02:58;12.93;;;5.18;;
71916;SDS011;59793;46.506;6.674;2023-06-14T12:05:28;10.90;;;4.45;;
71916;SDS011;59793;46.506;6.674;2023-06-14T12:08:15;14.68;;;3.95;;
71916;SDS011;59793;46.506;6.674;2023-06-14T12:11:21;9.50;;;3.88;;
71916;SDS011;59793;46.506;6.674;2023-06-14T12:14:16;11.13;;;4.28;;
71916;SDS011;59793;46.506;6.674;2023-06-14T12:16:42;11.23;;;4.35;;
71916;SDS011;59793;46.506;6.674;2023-06-14T12:19:16;5.85;;;4.15;;
71916;SDS011;59793;46.506;6.674;2023-06-14T12:22:06;5.43;;;3.80;;
71916;SDS011;59793;46.506;6.674;2023-06-14T12:24:38;7.18;;;4.30;;
71916;SDS011;59793;46.506;6.674;2023-06-14T12:27:05;5.10;;;3.72;;
71916;SDS011;59793;46.506;6.674;2023-06-14T12:30:04;7.38;;;3.42;;
71916;SDS011;59793;46.506;6.674;2023-06-14T12:32:53;7.38;;;3.40;;
71916;SDS011;59793;46.506;6.674;2023-06-14T12:35:20;7.82;;;4.20;;
71916;SDS011;59793;46.506;6.674;2023-06-14T12:37:46;6.07;;;3.65;;
71916;SDS011;59793;46.506;6.674;2023-06-14T12:40:17;9.00;;;3.47;;
71916;SDS011;59793;46.506;6.674;2023-06-14T12:42:44;5.40;;;3.90;;
71916;SDS011;59793;46.506;6.674;2023-06-14T12:45:53;9.73;;;3.60;;
71916;SDS011;59793;46.506;6.674;2023-06-14T12:48:36;4.57;;;3.00;;
71916;SDS011;59793;46.506;6.674;2023-06-14T12:51:50;6.65;;;3.80;;
71916;SDS011;59793;46.506;6.674;2023-06-14T12:54:19;5.18;;;3.17;;
71916;SDS011;59793;46.506;6.674;2023-06-14T12:56:48;7.07;;;4.05;;
71916;SDS011;59793;46.506;6.674;2023-06-14T12:59:39;5.55;;;3.80;;
71916;SDS011;59793;46.506;6.674;2023-06-14T13:12:31;7.55;;;3.83;;
71916;SDS011;59793;46.506;6.674;2023-06-14T13:20:07;6.78;;;3.78;;
71916;SDS011;59793;46.506;6.674;2023-06-14T13:22:33;5.80;;;3.50;;
71916;SDS011;59793;46.506;6.674;2023-06-14T13:24:59;7.00;;;3.33;;
71916;SDS011;59793;46.506;6.674;2023-06-14T13:32:34;7.20;;;3.55;;
71916;SDS011;59793;46.506;6.674;2023-06-14T13:35:00;7.60;;;3.40;;
71916;SDS011;59793;46.506;6.674;2023-06-14T13:37:27;9.52;;;3.72;;
71916;SDS011;59793;46.506;6.674;2023-06-14T13:40:15;7.63;;;3.88;;
71916;SDS011;59793;46.506;6.674;2023-06-14T14:02:36;10.95;;;3.28;;
71916;SDS011;59793;46.506;6.674;2023-06-14T14:05:07;6.23;;;3.60;;
71916;SDS011;59793;46.506;6.674;2023-06-14T14:07:45;6.68;;;4.00;;
71916;SDS011;59793;46.506;6.674;2023-06-14T14:10:10;11.02;;;3.72;;
71916;SDS011;59793;46.506;6.674;2023-06-14T14:17:51;6.72;;;3.90;;
71916;SDS011;59793;46.506;6.674;2023-06-14T14:20:19;7.28;;;3.67;;
71916;SDS011;59793;46.506;6.674;2023-06-14T14:35:52;6.70;;;3.85;;
71916;SDS011;59793;46.506;6.674;2023-06-14T14:48:36;8.70;;;4.03;;
71916;SDS011;59793;46.506;6.674;2023-06-14T14:51:01;6.38;;;3.65;;
71916;SDS011;59793;46.506;6.674;2023-06-14T14:56:23;6.50;;;3.88;;
71916;SDS011;59793;46.506;6.674;2023-06-14T14:59:02;8.93;;;3.22;;
71916;SDS011;59793;46.506;6.674;2023-06-14T15:01:31;4.18;;;2.45;;
71916;SDS011;59793;46.506;6.674;2023-06-14T15:04:01;5.53;;;2.67;;
71916;SDS011;59793;46.506;6.674;2023-06-14T15:06:32;3.60;;;2.17;;
71916;SDS011;59793;46.506;6.674;2023-06-14T15:09:00;5.40;;;2.47;;
71916;SDS011;59793;46.506;6.674;2023-06-14T15:13:52;4.88;;;2.60;;
71916;SDS011;59793;46.506;6.674;2023-06-14T15:16:32;4.88;;;2.55;;
71916;SDS011;59793;46.506;6.674;2023-06-14T15:18:58;6.60;;;2.88;;
71916;SDS011;59793;46.506;6.674;2023-06-14T15:24:14;7.18;;;2.50;;
71916;SDS011;59793;46.506;6.674;2023-06-14T15:59:47;7.05;;;2.42;;
71916;SDS011;59793;46.506;6.674;2023-06-14T16:35:47;6.97;;;3.00;;
71916;SDS011;59793;46.506;6.674;2023-06-14T16:40:37;3.40;;;2.07;;
71916;SDS011;59793;46.506;6.674;2023-06-14T16:43:02;6.18;;;2.42;;
71916;SDS011;59793;46.506;6.674;2023-06-14T16:45:28;3.63;;;2.20;;
71916;SDS011;59793;46.506;6.674;2023-06-14T16:47:54;5.60;;;2.60;;
71916;SDS011;59793;46.506;6.674;2023-06-14T16:50:19;5.20;;;2.22;;
71916;SDS011;59793;46.506;6.674;2023-06-14T16:55:41;10.60;;;2.92;;
71916;SDS011;59793;46.506;6.674;2023-06-14T17:00:48;5.15;;;2.97;;
71916;SDS011;59793;46.506;6.674;2023-06-14T17:03:19;5.72;;;2.28;;
71916;SDS011;59793;46.506;6.674;2023-06-14T17:10:54;4.05;;;2.60;;
71916;SDS011;59793;46.506;6.674;2023-06-14T17:13:22;9.57;;;3.30;;
71916;SDS011;59793;46.506;6.674;2023-06-14T17:18:13;3.28;;;2.22;;
71916;SDS011;59793;46.506;6.674;2023-06-14T17:20:38;3.93;;;2.37;;
71916;SDS011;59793;46.506;6.674;2023-06-14T17:23:03;4.18;;;2.53;;
71916;SDS011;59793;46.506;6.674;2023-06-14T17:25:30;5.03;;;2.70;;
71916;SDS011;59793;46.506;6.674;2023-06-14T17:27:59;7.63;;;3.10;;
71916;SDS011;59793;46.506;6.674;2023-06-14T17:30:30;7.55;;;2.50;;
71916;SDS011;59793;46.506;6.674;2023-06-14T17:35:49;4.25;;;2.50;;
71916;SDS011;59793;46.506;6.674;2023-06-14T17:40:41;5.53;;;2.60;;
71916;SDS011;59793;46.506;6.674;2023-06-14T17:43:07;5.97;;;2.80;;
71916;SDS011;59793;46.506;6.674;2023-06-14T17:45:36;6.47;;;2.70;;
71916;SDS011;59793;46.506;6.674;2023-06-14T17:48:03;6.50;;;3.13;;
71916;SDS011;59793;46.506;6.674;2023-06-14T17:50:35;5.15;;;2.72;;
71916;SDS011;59793;46.506;6.674;2023-06-14T17:53:04;7.35;;;2.58;;
71916;SDS011;59793;46.506;6.674;2023-06-14T17:55:37;4.15;;;2.40;;
71916;SDS011;59793;46.506;6.674;2023-06-14T17:58:06;6.70;;;3.05;;
71916;SDS011;59793;46.506;6.674;2023-06-14T18:00:32;7.95;;;2.63;;
71916;SDS011;59793;46.506;6.674;2023-06-14T18:02:59;4.18;;;2.55;;
71916;SDS011;59793;46.506;6.674;2023-06-14T18:05:26;5.90;;;2.85;;
71916;SDS011;59793;46.506;6.674;2023-06-14T18:07:52;6.63;;;3.17;;
71916;SDS011;59793;46.506;6.674;2023-06-14T18:10:17;6.60;;;2.72;;
71916;SDS011;59793;46.506;6.674;2023-06-14T18:12:43;6.35;;;3.28;;
71916;SDS011;59793;46.506;6.674;2023-06-14T18:15:09;6.82;;;2.53;;
71916;SDS011;59793;46.506;6.674;2023-06-14T18:20:01;6.93;;;2.90;;
71916;SDS011;59793;46.506;6.674;2023-06-14T18:22:28;4.70;;;3.00;;
71916;SDS011;59793;46.506;6.674;2023-06-14T18:24:58;5.53;;;3.00;;
71916;SDS011;59793;46.506;6.674;2023-06-14T18:27:24;6.38;;;2.80;;
71916;SDS011;59793;46.506;6.674;2023-06-14T18:29:49;4.63;;;2.90;;
71916;SDS011;59793;46.506;6.674;2023-06-14T18:32:15;3.58;;;2.75;;
71916;SDS011;59793;46.506;6.674;2023-06-14T18:34:40;5.83;;;3.30;;
71916;SDS011;59793;46.506;6.674;2023-06-14T18:37:07;6.63;;;2.73;;
71916;SDS011;59793;46.506;6.674;2023-06-14T18:39:34;5.93;;;3.08;;
71916;SDS011;59793;46.506;6.674;2023-06-14T18:42:08;5.32;;;3.00;;
71916;SDS011;59793;46.506;6.674;2023-06-14T18:44:43;5.47;;;3.15;;
71916;SDS011;59793;46.506;6.674;2023-06-14T18:47:09;7.05;;;2.72;;
71916;SDS011;59793;46.506;6.674;2023-06-14T18:49:37;8.00;;;3.03;;
71916;SDS011;59793;46.506;6.674;2023-06-14T18:52:04;6.18;;;3.13;;
71916;SDS011;59793;46.506;6.674;2023-06-14T18:54:32;4.65;;;2.78;;
71916;SDS011;59793;46.506;6.674;2023-06-14T18:57:21;4.85;;;2.83;;
71916;SDS011;59793;46.506;6.674;2023-06-14T18:59:46;7.63;;;3.07;;
71916;SDS011;59793;46.506;6.674;2023-06-14T19:02:12;6.75;;;3.40;;
71916;SDS011;59793;46.506;6.674;2023-06-14T19:04:37;7.53;;;2.90;;
71916;SDS011;59793;46.506;6.674;2023-06-14T19:07:03;3.83;;;2.55;;
71916;SDS011;59793;46.506;6.674;2023-06-14T19:09:30;6.65;;;3.05;;
71916;SDS011;59793;46.506;6.674;2023-06-14T19:11:57;6.40;;;2.80;;
71916;SDS011;59793;46.506;6.674;2023-06-14T19:14:23;6.50;;;2.60;;
71916;SDS011;59793;46.506;6.674;2023-06-14T19:16:49;5.15;;;2.90;;
71916;SDS011;59793;46.506;6.674;2023-06-14T19:19:15;7.28;;;3.95;;
71916;SDS011;59793;46.506;6.674;2023-06-14T19:21:42;4.73;;;2.70;;
71916;SDS011;59793;46.506;6.674;2023-06-14T19:24:09;7.72;;;3.35;;
71916;SDS011;59793;46.506;6.674;2023-06-14T19:26:34;11.53;;;3.20;;
71916;SDS011;59793;46.506;6.674;2023-06-14T19:29:20;4.93;;;2.97;;
71916;SDS011;59793;46.506;6.674;2023-06-14T19:31:45;8.13;;;3.53;;
71916;SDS011;59793;46.506;6.674;2023-06-14T19:34:11;10.88;;;3.72;;
71916;SDS011;59793;46.506;6.674;2023-06-14T19:36:38;4.73;;;3.13;;
71916;SDS011;59793;46.506;6.674;2023-06-14T19:39:03;5.65;;;3.70;;
71916;SDS011;59793;46.506;6.674;2023-06-14T19:41:29;5.25;;;3.17;;
71916;SDS011;59793;46.506;6.674;2023-06-14T19:43:55;9.80;;;3.88;;
71916;SDS011;59793;46.506;6.674;2023-06-14T19:46:21;7.97;;;3.47;;
71916;SDS011;59793;46.506;6.674;2023-06-14T19:48:50;5.45;;;3.40;;
71916;SDS011;59793;46.506;6.674;2023-06-14T19:51:16;8.82;;;3.63;;
71916;SDS011;59793;46.506;6.674;2023-06-14T19:53:41;9.00;;;3.17;;
71916;SDS011;59793;46.506;6.674;2023-06-14T19:56:07;5.20;;;3.23;;
71916;SDS011;59793;46.506;6.674;2023-06-14T19:58:34;6.65;;;3.05;;
71916;SDS011;59793;46.506;6.674;2023-06-14T20:00:59;6.05;;;4.00;;
71916;SDS011;59793;46.506;6.674;2023-06-14T20:03:25;10.80;;;3.67;;
71916;SDS011;59793;46.506;6.674;2023-06-14T20:05:50;8.13;;;3.77;;
71916;SDS011;59793;46.506;6.674;2023-06-14T20:08:18;9.90;;;3.53;;
71916;SDS011;59793;46.506;6.674;2023-06-14T20:10:48;4.32;;;3.45;;
71916;SDS011;59793;46.506;6.674;2023-06-14T20:13:14;7.35;;;3.25;;
71916;SDS011;59793;46.506;6.674;2023-06-14T20:18:07;5.93;;;3.45;;
71916;SDS011;59793;46.506;6.674;2023-06-14T20:20:32;9.13;;;3.67;;
71916;SDS011;59793;46.506;6.674;2023-06-14T20:22:58;4.20;;;3.00;;
71916;SDS011;59793;46.506;6.674;2023-06-14T20:25:24;5.80;;;3.88;;
71916;SDS011;59793;46.506;6.674;2023-06-14T20:27:51;8.10;;;3.70;;
71916;SDS011;59793;46.506;6.674;2023-06-14T20:30:16;4.80;;;3.40;;
71916;SDS011;59793;46.506;6.674;2023-06-14T20:32:44;7.55;;;3.53;;
71916;SDS011;59793;46.506;6.674;2023-06-14T20:35:09;11.70;;;3.80;;
71916;SDS011;59793;46.506;6.674;2023-06-14T20:37:35;8.85;;;4.90;;
71916;SDS011;59793;46.506;6.674;2023-06-14T20:40:04;4.13;;;3.17;;
71916;SDS011;59793;46.506;6.674;2023-06-14T20:42:31;5.00;;;3.20;;
71916;SDS011;59793;46.506;6.674;2023-06-14T20:44:59;7.78;;;3.60;;
71916;SDS011;59793;46.506;6.674;2023-06-14T20:47:27;9.80;;;3.55;;
71916;SDS011;59793;46.506;6.674;2023-06-14T20:49:53;7.00;;;3.78;;
71916;SDS011;59793;46.506;6.674;2023-06-14T20:52:21;7.75;;;3.88;;
71916;SDS011;59793;46.506;6.674;2023-06-14T20:54:51;7.43;;;3.70;;
71916;SDS011;59793;46.506;6.674;2023-06-14T20:57:17;10.02;;;3.90;;
71916;SDS011;59793;46.506;6.674;2023-06-14T20:59:42;8.17;;;3.43;;
71916;SDS011;59793;46.506;6.674;2023-06-14T21:02:09;8.07;;;3.75;;
71916;SDS011;59793;46.506;6.674;2023-06-14T21:04:40;10.45;;;4.05;;
71916;SDS011;59793;46.506;6.674;2023-06-14T21:07:09;11.68;;;4.22;;
71916;SDS011;59793;46.506;6.674;2023-06-14T21:09:35;9.75;;;4.18;;
71916;SDS011;59793;46.506;6.674;2023-06-14T21:12:03;6.75;;;4.00;;
71916;SDS011;59793;46.506;6.674;2023-06-14T21:14:32;6.22;;;3.97;;
71916;SDS011;59793;46.506;6.674;2023-06-14T21:17:01;10.80;;;4.07;;
71916;SDS011;59793;46.506;6.674;2023-06-14T21:19:42;12.25;;;3.67;;
71916;SDS011;59793;46.506;6.674;2023-06-14T21:22:07;12.10;;;4.28;;
71916;SDS011;59793;46.506;6.674;2023-06-14T21:24:35;10.20;;;4.15;;
71916;SDS011;59793;46.506;6.674;2023-06-14T21:27:01;8.63;;;3.60;;